createdAt,value
2023-05-04T00:00:53.190Z,100.00
2023-05-04T00:03:22.134Z,100.00
2023-05-04T00:05:51.372Z,100.00
2023-05-04T00:08:22.118Z,100.00
2023-05-04T00:10:51.596Z,100.00
2023-05-04T00:13:24.419Z,100.00
2023-05-04T00:15:56.380Z,100.00
2023-05-04T00:18:25.401Z,100.00
2023-05-04T00:20:57.210Z,100.00
2023-05-04T00:23:26.192Z,100.00
2023-05-04T00:25:55.709Z,100.00
2023-05-04T00:28:25.618Z,100.00
2023-05-04T00:30:57.611Z,100.00
2023-05-04T00:33:29.926Z,100.00
2023-05-04T00:36:04.457Z,100.00
2023-05-04T00:38:35.433Z,100.00
2023-05-04T00:41:04.409Z,100.00
2023-05-04T00:43:33.559Z,100.00
2023-05-04T00:46:09.504Z,100.00
2023-05-04T00:48:40.525Z,100.00
2023-05-04T00:51:16.061Z,100.00
2023-05-04T00:53:45.558Z,100.00
2023-05-04T00:56:17.247Z,100.00
2023-05-04T00:58:47.777Z,100.00
2023-05-04T01:01:17.991Z,100.00
2023-05-04T01:03:47.769Z,100.00
2023-05-04T01:06:27.112Z,100.00
2023-05-04T01:09:08.386Z,100.00
2023-05-04T01:11:51.407Z,100.00
2023-05-04T01:14:22.951Z,100.00
2023-05-04T01:16:56.875Z,100.00
2023-05-04T01:19:29.870Z,100.00
2023-05-04T01:22:00.677Z,100.00
2023-05-04T01:24:32.406Z,100.00
2023-05-04T01:27:12.458Z,100.00
2023-05-04T01:29:52.643Z,100.00
2023-05-04T01:32:23.821Z,100.00
2023-05-04T01:34:57.565Z,100.00
2023-05-04T01:37:33.824Z,100.00
2023-05-04T01:40:05.502Z,100.00
2023-05-04T01:42:40.226Z,100.00
2023-05-04T01:45:12.239Z,100.00
2023-05-04T01:47:43.328Z,100.00
2023-05-04T01:50:13.534Z,100.00
2023-05-04T01:52:44.329Z,100.00
2023-05-04T01:55:13.656Z,100.00
2023-05-04T01:57:43.917Z,100.00
2023-05-04T02:00:18.308Z,100.00
2023-05-04T02:02:47.683Z,100.00
2023-05-04T02:05:18.284Z,100.00
2023-05-04T02:07:49.414Z,100.00
2023-05-04T02:10:18.226Z,100.00
2023-05-04T02:12:47.310Z,100.00
2023-05-04T02:15:17.193Z,100.00
2023-05-04T02:17:46.856Z,100.00
2023-05-04T02:20:17.105Z,100.00
2023-05-04T02:22:51.985Z,100.00
2023-05-04T02:25:22.118Z,100.00
2023-05-04T02:27:51.895Z,100.00
2023-05-04T02:30:31.228Z,100.00
2023-05-04T02:33:01.023Z,100.00
2023-05-04T02:35:30.059Z,100.00
2023-05-04T02:38:03.724Z,100.00
2023-05-04T02:40:34.150Z,100.00
2023-05-04T02:43:02.749Z,100.00
2023-05-04T02:45:33.020Z,100.00
2023-05-04T02:48:06.144Z,100.00
2023-05-04T02:50:36.334Z,100.00
2023-05-04T02:53:09.285Z,100.00
2023-05-04T02:55:38.946Z,100.00
2023-05-04T02:58:11.377Z,100.00
2023-05-04T03:00:41.579Z,100.00
2023-05-04T03:03:12.051Z,100.00
2023-05-04T03:05:41.348Z,100.00
2023-05-04T03:08:13.412Z,100.00
2023-05-04T03:10:45.577Z,100.00
2023-05-04T03:13:16.710Z,100.00
2023-05-04T03:15:47.242Z,100.00
2023-05-04T03:18:15.751Z,100.00
2023-05-04T03:20:47.279Z,100.00
2023-05-04T03:23:19.002Z,100.00
2023-05-04T03:25:48.720Z,100.00
2023-05-04T03:28:21.699Z,100.00
2023-05-04T03:30:51.249Z,100.00
2023-05-04T03:33:23.029Z,100.00
2023-05-04T03:35:53.086Z,100.00
2023-05-04T03:38:25.357Z,100.00
2023-05-04T03:40:55.065Z,100.00
2023-05-04T03:43:23.649Z,100.00
2023-05-04T03:46:01.828Z,100.00
2023-05-04T03:48:31.902Z,100.00
2023-05-04T03:51:04.549Z,100.00
2023-05-04T03:53:38.201Z,100.00
2023-05-04T03:56:08.488Z,100.00
2023-05-04T03:58:37.915Z,100.00
2023-05-04T04:01:11.816Z,100.00
2023-05-04T04:03:41.704Z,100.00
2023-05-04T04:06:18.053Z,100.00
2023-05-04T04:08:50.890Z,100.00
2023-05-04T04:11:22.623Z,100.00
2023-05-04T04:13:52.659Z,100.00
2023-05-04T04:16:23.826Z,100.00
2023-05-04T04:18:54.191Z,100.00
2023-05-04T04:21:26.104Z,100.00
2023-05-04T04:23:58.875Z,100.00
2023-05-04T04:26:29.706Z,100.00
2023-05-04T04:29:08.600Z,100.00
2023-05-04T04:31:38.456Z,100.00
2023-05-04T04:34:08.659Z,100.00
2023-05-04T04:36:45.439Z,100.00
2023-05-04T04:39:18.959Z,100.00
2023-05-04T04:44:34.362Z,100.00
2023-05-04T04:47:03.949Z,100.00
2023-05-04T04:49:33.416Z,100.00
2023-05-04T04:52:12.219Z,100.00
2023-05-04T04:54:49.472Z,100.00
2023-05-04T04:57:20.463Z,100.00
2023-05-04T04:59:50.250Z,100.00
2023-05-04T05:02:39.995Z,100.00
2023-05-04T05:05:12.203Z,100.00
2023-05-04T05:07:42.511Z,100.00
2023-05-04T05:10:13.704Z,100.00
2023-05-04T05:12:44.890Z,100.00
2023-05-04T05:15:15.203Z,100.00
2023-05-04T05:17:50.228Z,100.00
2023-05-04T05:20:23.009Z,100.00
2023-05-04T05:22:52.413Z,100.00
2023-05-04T05:25:26.104Z,100.00
2023-05-04T05:27:55.313Z,100.00
2023-05-04T05:30:29.196Z,100.00
2023-05-04T05:32:58.356Z,100.00
2023-05-04T05:35:29.128Z,100.00
2023-05-04T05:37:58.076Z,100.00
2023-05-04T05:40:32.445Z,100.00
2023-05-04T05:43:04.476Z,100.00
2023-05-04T05:45:36.946Z,100.00
2023-05-04T05:48:08.041Z,100.00
2023-05-04T05:50:44.305Z,100.00
2023-05-04T05:53:14.605Z,100.00
2023-05-04T05:55:47.663Z,100.00
2023-05-04T05:58:19.891Z,100.00
2023-05-04T06:00:52.309Z,100.00
2023-05-04T06:03:23.590Z,100.00
2023-05-04T06:05:53.394Z,100.00
2023-05-04T06:08:25.116Z,100.00
2023-05-04T06:10:58.479Z,100.00
2023-05-04T06:13:30.512Z,100.00
2023-05-04T06:16:00.931Z,100.00
2023-05-04T06:18:31.435Z,100.00
2023-05-04T06:21:03.801Z,100.00
2023-05-04T06:23:33.762Z,100.00
2023-05-04T06:26:07.971Z,100.00
2023-05-04T06:28:38.010Z,100.00
2023-05-04T06:31:15.990Z,100.00
2023-05-04T06:33:46.422Z,100.00
2023-05-04T06:36:16.888Z,100.00
2023-05-04T06:38:56.796Z,100.00
2023-05-04T06:41:32.511Z,100.00
2023-05-04T06:44:04.146Z,100.00
2023-05-04T06:46:39.777Z,100.00
2023-05-04T06:49:11.317Z,100.00
2023-05-04T06:51:42.015Z,100.00
2023-05-04T06:54:12.775Z,100.00
2023-05-04T06:56:44.604Z,100.00
2023-05-04T06:59:16.887Z,100.00
2023-05-04T07:01:47.421Z,100.00
2023-05-04T07:04:17.862Z,100.00
2023-05-04T07:06:48.496Z,100.00
2023-05-04T07:09:19.052Z,100.00
2023-05-04T07:11:51.034Z,100.00
2023-05-04T07:14:23.817Z,100.00
2023-05-04T07:16:57.125Z,100.00
2023-05-04T07:19:28.242Z,100.00
2023-05-04T07:21:58.834Z,100.00
2023-05-04T07:24:40.464Z,100.00
2023-05-04T07:27:12.054Z,100.00
2023-05-04T07:29:51.843Z,100.00
2023-05-04T07:32:33.365Z,100.00
2023-05-04T07:35:05.116Z,100.00
2023-05-04T07:37:34.694Z,100.00
2023-05-04T07:40:07.761Z,100.00
2023-05-04T07:42:41.519Z,100.00
2023-05-04T07:45:13.162Z,100.00
2023-05-04T07:47:43.584Z,100.00
2023-05-04T07:50:14.137Z,100.00
2023-05-04T07:52:45.694Z,100.00
2023-05-04T07:55:19.565Z,100.00
2023-05-04T07:57:55.556Z,100.00
2023-05-04T08:00:30.157Z,100.00
2023-05-04T08:03:04.812Z,100.00
2023-05-04T08:05:33.780Z,100.00
2023-05-04T08:08:04.696Z,100.00
2023-05-04T08:10:38.103Z,100.00
2023-05-04T08:13:18.111Z,100.00
2023-05-04T08:15:48.893Z,100.00
2023-05-04T08:18:20.285Z,100.00
2023-05-04T08:20:53.257Z,100.00
2023-05-04T08:23:23.644Z,100.00
2023-05-04T08:25:56.267Z,100.00
2023-05-04T08:28:31.271Z,100.00
2023-05-04T08:31:01.558Z,100.00
2023-05-04T08:33:33.860Z,100.00
2023-05-04T08:36:05.053Z,100.00
2023-05-04T08:38:37.086Z,100.00
2023-05-04T08:41:09.648Z,100.00
2023-05-04T08:43:40.723Z,100.00
2023-05-04T08:46:12.032Z,100.00
2023-05-04T08:48:43.027Z,100.00
2023-05-04T08:51:13.536Z,100.00
2023-05-04T08:53:47.989Z,100.00
2023-05-04T08:56:18.920Z,100.00
2023-05-04T08:58:52.718Z,100.00
2023-05-04T09:01:24.110Z,100.00
2023-05-04T09:03:56.840Z,100.00
2023-05-04T09:06:26.937Z,100.00
2023-05-04T09:08:56.021Z,100.00
2023-05-04T09:11:25.832Z,100.00
2023-05-04T09:13:56.240Z,100.00
2023-05-04T09:16:35.678Z,100.00
2023-05-04T09:19:06.845Z,100.00
2023-05-04T09:21:36.382Z,100.00
2023-05-04T09:24:13.543Z,100.00
2023-05-04T09:26:42.445Z,100.00
2023-05-04T09:29:19.468Z,100.00
2023-05-04T09:31:52.551Z,100.00
2023-05-04T09:34:23.018Z,100.00
2023-05-04T09:37:00.737Z,100.00
2023-05-04T09:39:31.968Z,100.00
2023-05-04T09:42:03.349Z,100.00
2023-05-04T09:44:37.530Z,100.00
2023-05-04T09:47:07.491Z,100.00
2023-05-04T09:49:39.230Z,100.00
2023-05-04T09:52:09.770Z,100.00
2023-05-04T09:54:42.082Z,100.00
2023-05-04T09:57:14.276Z,100.00
2023-05-04T09:59:45.725Z,100.00
2023-05-04T10:02:22.810Z,100.00
2023-05-04T10:04:53.299Z,100.00
2023-05-04T10:07:25.012Z,100.00
2023-05-04T10:09:54.986Z,100.00
2023-05-04T10:12:30.202Z,100.00
2023-05-04T10:15:00.430Z,100.00
2023-05-04T10:17:48.383Z,100.00
2023-05-04T10:20:46.404Z,100.00
2023-05-04T10:23:47.841Z,100.00
2023-05-04T10:26:59.765Z,100.00
2023-05-04T10:29:33.290Z,100.00
2023-05-04T10:32:09.618Z,100.00
2023-05-04T10:34:39.068Z,100.00
2023-05-04T10:37:19.432Z,100.00
2023-05-04T10:39:56.145Z,100.00
2023-05-04T10:42:24.780Z,100.00
2023-05-04T10:44:56.643Z,100.00
2023-05-04T10:47:35.463Z,100.00
2023-05-04T10:50:08.527Z,100.00
2023-05-04T10:52:48.942Z,100.00
2023-05-04T10:55:20.736Z,100.00
2023-05-04T10:57:54.112Z,100.00
2023-05-04T11:00:26.505Z,100.00
2023-05-04T11:03:06.505Z,100.00
2023-05-04T11:05:46.271Z,100.00
2023-05-04T11:08:21.898Z,100.00
2023-05-04T11:11:06.983Z,100.00
2023-05-04T11:13:46.476Z,100.00
2023-05-04T11:16:25.204Z,100.00
2023-05-04T11:19:08.991Z,100.00
2023-05-04T11:21:41.664Z,100.00
2023-05-04T11:24:16.047Z,100.00
2023-05-04T11:26:50.172Z,93.26
2023-05-04T11:29:20.823Z,100.00
2023-05-04T11:31:56.919Z,90.31
2023-05-04T11:34:28.105Z,90.51
2023-05-04T11:37:05.103Z,89.11
2023-05-04T11:39:38.458Z,87.11
2023-05-04T11:42:11.995Z,87.83
2023-05-04T11:44:43.576Z,90.55
2023-05-04T11:47:16.885Z,85.94
2023-05-04T11:49:49.005Z,79.59
2023-05-04T11:52:26.947Z,81.75
2023-05-04T11:54:59.420Z,82.73
2023-05-04T11:57:28.419Z,82.59
2023-05-04T12:00:00.745Z,80.37
2023-05-04T12:02:30.816Z,74.49
2023-05-04T12:05:03.211Z,70.63
2023-05-04T12:07:37.452Z,73.03
2023-05-04T12:10:09.640Z,76.40
2023-05-04T12:12:42.965Z,73.43
2023-05-04T12:15:12.373Z,69.07
2023-05-04T12:17:55.582Z,70.62
2023-05-04T12:20:29.588Z,70.39
2023-05-04T12:23:08.699Z,67.38
2023-05-04T12:25:50.982Z,65.60
2023-05-04T12:28:27.818Z,68.55
2023-05-04T12:31:01.610Z,55.91
2023-05-04T12:33:32.105Z,55.53
2023-05-04T12:36:04.400Z,58.29
2023-05-04T12:38:36.014Z,60.11
2023-05-04T12:41:09.967Z,56.08
2023-05-04T12:43:42.650Z,56.75
2023-05-04T12:46:13.353Z,56.73
2023-05-04T12:48:43.545Z,57.94
2023-05-04T12:51:15.884Z,57.96
2023-05-04T12:53:45.680Z,54.18
2023-05-04T12:56:16.658Z,54.80
2023-05-04T12:58:49.481Z,54.14
2023-05-04T13:01:18.770Z,56.87
2023-05-04T13:03:49.854Z,55.78
2023-05-04T13:06:21.123Z,55.13
2023-05-04T13:08:55.726Z,57.01
2023-05-04T13:11:25.150Z,57.29
2023-05-04T13:14:02.726Z,56.75
2023-05-04T13:16:33.908Z,57.46
2023-05-04T13:19:03.296Z,62.81
2023-05-04T13:21:34.783Z,58.85
2023-05-04T13:24:03.808Z,56.93
2023-05-04T13:26:34.285Z,57.25
2023-05-04T13:29:06.882Z,56.59
2023-05-04T13:31:36.604Z,53.78
2023-05-04T13:34:09.153Z,54.01
2023-05-04T13:36:39.769Z,56.06
2023-05-04T13:39:12.745Z,55.50
2023-05-04T13:41:43.635Z,53.21
2023-05-04T13:44:15.785Z,53.35
2023-05-04T13:46:46.119Z,54.95
2023-05-04T13:49:17.629Z,51.50
2023-05-04T13:51:53.200Z,51.78
2023-05-04T13:54:22.486Z,50.85
2023-05-04T13:56:54.546Z,50.39
2023-05-04T13:59:24.453Z,51.78
2023-05-04T14:01:59.461Z,50.74
2023-05-04T14:04:31.347Z,50.56
2023-05-04T14:07:04.585Z,48.90
2023-05-04T14:09:36.741Z,48.43
2023-05-04T14:12:07.031Z,48.49
2023-05-04T14:14:38.640Z,50.63
2023-05-04T14:17:13.139Z,49.28
2023-05-04T14:19:49.495Z,46.96
2023-05-04T14:22:20.526Z,46.04
2023-05-04T14:24:51.560Z,46.28
2023-05-04T14:27:23.917Z,46.51
2023-05-04T14:29:56.509Z,46.56
2023-05-04T14:32:26.846Z,46.61
2023-05-04T14:35:08.259Z,46.57
2023-05-04T14:37:42.647Z,45.51
2023-05-04T14:40:22.652Z,46.49
2023-05-04T14:42:51.582Z,44.81
2023-05-04T14:45:20.972Z,44.64
2023-05-04T14:47:50.925Z,44.26
2023-05-04T14:50:20.128Z,45.01
2023-05-04T14:52:50.853Z,43.78
2023-05-04T14:55:19.500Z,43.10
2023-05-04T14:57:48.687Z,43.87
2023-05-04T15:00:21.648Z,43.99
2023-05-04T15:02:50.841Z,45.23
2023-05-04T15:05:20.976Z,43.75
2023-05-04T15:07:51.624Z,43.28
2023-05-04T15:10:21.455Z,43.59
2023-05-04T15:12:53.076Z,42.99
2023-05-04T15:15:24.707Z,43.67
2023-05-04T15:17:54.079Z,43.55
2023-05-04T15:20:28.657Z,44.12
2023-05-04T15:23:01.755Z,43.81
2023-05-04T15:25:34.451Z,44.31
2023-05-04T15:28:04.397Z,43.36
2023-05-04T15:30:34.390Z,43.63
2023-05-04T15:33:10.710Z,43.93
2023-05-04T15:35:46.280Z,46.02
2023-05-04T15:38:16.708Z,46.88
2023-05-04T15:40:47.215Z,45.00
2023-05-04T15:43:18.485Z,46.95
2023-05-04T15:45:53.727Z,46.84
2023-05-04T15:48:24.249Z,47.93
2023-05-04T15:50:53.924Z,47.02
2023-05-04T15:53:24.458Z,46.83
2023-05-04T15:55:54.824Z,47.96
2023-05-04T15:58:23.389Z,50.93
2023-05-04T16:00:59.244Z,48.95
2023-05-04T16:03:31.444Z,47.88
2023-05-04T16:06:05.728Z,48.68
2023-05-04T16:08:41.936Z,49.36
2023-05-04T16:11:13.443Z,50.61
2023-05-04T16:13:42.653Z,49.58
2023-05-04T16:16:13.828Z,50.83
2023-05-04T16:18:44.218Z,50.89
2023-05-04T16:21:15.370Z,51.81
2023-05-04T16:23:50.449Z,49.18
2023-05-04T16:26:24.775Z,49.18
2023-05-04T16:29:00.226Z,50.09
2023-05-04T16:31:31.258Z,48.83
2023-05-04T16:34:07.102Z,49.10
2023-05-04T16:36:45.213Z,50.33
2023-05-04T16:39:22.327Z,49.99
2023-05-04T16:42:05.122Z,50.08
2023-05-04T16:44:34.517Z,51.85
2023-05-04T16:47:03.104Z,48.88
2023-05-04T16:49:33.982Z,50.68
2023-05-04T16:52:03.118Z,49.80
2023-05-04T16:54:34.516Z,51.80
2023-05-04T16:57:04.419Z,52.67
2023-05-04T16:59:33.939Z,52.06
2023-05-04T17:02:03.611Z,52.80
2023-05-04T17:04:36.362Z,52.90
2023-05-04T17:07:10.776Z,54.15
2023-05-04T17:09:46.398Z,56.53
2023-05-04T17:12:16.202Z,57.27
2023-05-04T17:14:46.952Z,56.95
2023-05-04T17:17:18.848Z,62.19
2023-05-04T17:19:52.979Z,61.32
2023-05-04T17:22:23.137Z,63.71
2023-05-04T17:24:56.652Z,65.11
2023-05-04T17:27:25.273Z,65.96
2023-05-04T17:29:53.863Z,64.84
2023-05-04T17:32:23.974Z,68.26
2023-05-04T17:34:53.599Z,70.76
2023-05-04T17:37:30.673Z,74.72
2023-05-04T17:40:06.636Z,77.51
2023-05-04T17:42:36.085Z,75.39
2023-05-04T17:45:05.143Z,77.53
2023-05-04T17:47:41.521Z,74.78
2023-05-04T17:50:11.816Z,75.87
2023-05-04T17:52:46.240Z,74.48
2023-05-04T17:55:17.008Z,78.98
2023-05-04T17:57:49.242Z,85.41
2023-05-04T18:00:25.717Z,86.59
2023-05-04T18:02:55.056Z,84.89
2023-05-04T18:05:25.254Z,89.54
2023-05-04T18:07:55.133Z,85.96
2023-05-04T18:10:27.203Z,89.46
2023-05-04T18:13:00.470Z,86.68
2023-05-04T18:15:33.108Z,88.68
2023-05-04T18:18:02.536Z,91.37
2023-05-04T18:20:34.842Z,93.14
2023-05-04T18:23:04.266Z,87.25
2023-05-04T18:25:47.627Z,95.32
2023-05-04T18:28:23.070Z,91.65
2023-05-04T18:30:57.153Z,97.80
2023-05-04T18:33:26.145Z,97.89
2023-05-04T18:35:54.957Z,91.93
2023-05-04T18:38:28.215Z,97.97
2023-05-04T18:41:00.211Z,99.18
2023-05-04T18:43:31.085Z,90.20
2023-05-04T18:46:02.805Z,99.54
2023-05-04T18:48:32.279Z,99.91
2023-05-04T18:51:02.844Z,100.00
2023-05-04T18:53:33.569Z,93.85
2023-05-04T18:56:05.569Z,100.00
2023-05-04T18:58:34.590Z,100.00
2023-05-04T19:01:07.586Z,100.00
2023-05-04T19:03:37.133Z,100.00
2023-05-04T19:06:08.017Z,100.00
2023-05-04T19:08:37.279Z,100.00
2023-05-04T19:11:11.030Z,98.97
2023-05-04T19:13:41.646Z,100.00
2023-05-04T19:16:17.378Z,99.92
2023-05-04T19:18:47.352Z,100.00
2023-05-04T19:21:17.744Z,100.00
2023-05-04T19:23:47.322Z,100.00
2023-05-04T19:26:20.916Z,100.00
2023-05-04T19:28:50.195Z,100.00
2023-05-04T19:31:19.619Z,100.00
2023-05-04T19:33:52.399Z,100.00
2023-05-04T19:36:21.194Z,100.00
2023-05-04T19:38:50.247Z,100.00
2023-05-04T19:41:21.186Z,100.00
2023-05-04T19:43:52.376Z,100.00
2023-05-04T19:46:28.387Z,100.00
2023-05-04T19:48:59.672Z,100.00
2023-05-04T19:51:31.441Z,100.00
2023-05-04T19:54:09.238Z,100.00
2023-05-04T19:56:55.578Z,100.00
2023-05-04T19:59:27.840Z,100.00
2023-05-04T20:02:12.243Z,100.00
2023-05-04T20:04:46.972Z,100.00
2023-05-04T20:07:22.401Z,100.00
2023-05-04T20:09:52.751Z,100.00
2023-05-04T20:12:23.863Z,100.00
2023-05-04T20:14:55.166Z,100.00
2023-05-04T20:17:24.745Z,100.00
2023-05-04T20:19:57.007Z,100.00
2023-05-04T20:22:30.528Z,100.00
2023-05-04T20:25:00.852Z,100.00
2023-05-04T20:27:30.846Z,100.00
2023-05-04T20:30:01.674Z,100.00
2023-05-04T20:32:32.043Z,100.00
2023-05-04T20:35:02.471Z,100.00
2023-05-04T20:37:32.702Z,100.00
2023-05-04T20:40:05.104Z,100.00
2023-05-04T20:42:36.962Z,100.00
2023-05-04T20:45:07.672Z,100.00
2023-05-04T20:47:37.031Z,100.00
2023-05-04T20:50:06.439Z,100.00
2023-05-04T20:52:36.785Z,100.00
2023-05-04T20:55:08.294Z,100.00
2023-05-04T20:57:39.683Z,100.00
2023-05-04T21:00:12.848Z,100.00
2023-05-04T21:02:44.197Z,100.00
2023-05-04T21:05:16.535Z,100.00
2023-05-04T21:07:47.680Z,100.00
2023-05-04T21:10:17.093Z,100.00
2023-05-04T21:12:48.317Z,100.00
2023-05-04T21:15:17.872Z,100.00
2023-05-04T21:17:49.742Z,100.00
2023-05-04T21:20:20.728Z,100.00
2023-05-04T21:22:51.042Z,100.00
2023-05-04T21:25:20.967Z,100.00
2023-05-04T21:27:53.733Z,100.00
2023-05-04T21:30:23.684Z,100.00
2023-05-04T21:33:06.478Z,100.00
2023-05-04T21:35:36.909Z,100.00
2023-05-04T21:38:07.879Z,100.00
2023-05-04T21:40:40.746Z,100.00
2023-05-04T21:43:10.791Z,100.00
2023-05-04T21:45:39.521Z,100.00
2023-05-04T21:48:08.327Z,100.00
2023-05-04T21:50:37.219Z,100.00
2023-05-04T21:53:07.643Z,100.00
2023-05-04T21:55:36.837Z,100.00
2023-05-04T21:58:09.022Z,100.00
2023-05-04T22:00:40.208Z,100.00
2023-05-04T22:03:11.689Z,100.00
2023-05-04T22:05:43.057Z,100.00
2023-05-04T22:08:11.984Z,100.00
2023-05-04T22:10:41.430Z,100.00
2023-05-04T22:13:10.945Z,100.00
2023-05-04T22:15:49.987Z,100.00
2023-05-04T22:18:19.868Z,100.00
2023-05-04T22:20:53.024Z,100.00
2023-05-04T22:23:24.746Z,100.00
2023-05-04T22:25:53.239Z,100.00
2023-05-04T22:28:22.247Z,100.00
2023-05-04T22:30:52.508Z,100.00
2023-05-04T22:33:21.019Z,100.00
2023-05-04T22:35:49.998Z,100.00
2023-05-04T22:38:19.813Z,100.00
2023-05-04T22:40:50.933Z,100.00
2023-05-04T22:43:22.580Z,100.00
2023-05-04T22:45:55.139Z,100.00
2023-05-04T22:48:24.684Z,100.00
2023-05-04T22:50:57.550Z,100.00
2023-05-04T22:53:32.883Z,100.00
2023-05-04T22:56:02.050Z,100.00
2023-05-04T22:58:32.969Z,100.00
2023-05-04T23:01:03.157Z,100.00
2023-05-04T23:03:32.105Z,100.00
2023-05-04T23:06:01.354Z,100.00
2023-05-04T23:08:31.048Z,100.00
2023-05-04T23:11:00.031Z,100.00
2023-05-04T23:13:28.448Z,100.00
2023-05-04T23:15:57.757Z,100.00
2023-05-04T23:18:28.642Z,100.00
2023-05-04T23:20:58.690Z,100.00
2023-05-04T23:23:27.756Z,100.00
2023-05-04T23:25:56.253Z,100.00
2023-05-04T23:28:24.911Z,100.00
2023-05-04T23:30:55.719Z,100.00
2023-05-04T23:33:27.711Z,100.00
2023-05-04T23:35:57.419Z,100.00
2023-05-04T23:38:27.275Z,100.00
2023-05-04T23:40:57.802Z,100.00
2023-05-04T23:43:27.709Z,100.00
2023-05-04T23:46:02.085Z,100.00
2023-05-04T23:48:34.586Z,100.00
2023-05-04T23:51:05.112Z,100.00
2023-05-04T23:53:35.535Z,100.00
2023-05-04T23:56:07.664Z,100.00
2023-05-04T23:58:37.263Z,100.00
